ADDS METAR Data INFO
IDs: Format: Raw Decoded Include TAF

Data at: 1518 UTC 26 Apr 2018

METAR for:KEKN (Elkins Arpt, WV, US)
Text:KEKN 261451Z AUTO 33003KT 10SM CLR 11/03 A2995 RMK AO2 SLP148 T01060033 51005 TSNO
Temperature: 10.6°C ( 51°F)
Dewpoint: 3.3°C ( 38°F) [RH = 61%]
Pressure (altimeter):29.95 inches Hg (1014.3 mb) [Sea level pressure: 1014.8 mb]
Winds:from the NNW (330 degrees) at 3 MPH (3 knots; 1.5 m/s)
Visibility:10 or more sm (16+ km)
Ceiling:at least 12,000 feet AGL
Clouds:sky clear below 12,000 feet AGL
QC Flag:automated observation with no human augmentation
Text:KEKN 261351Z AUTO 28003KT 10SM CLR 09/03 A2994 RMK AO2 SLP144 T00890028 TSNO
Temperature: 8.9°C ( 48°F)
Dewpoint: 2.8°C ( 37°F) [RH = 66%]
Pressure (altimeter):29.94 inches Hg (1014.0 mb) [Sea level pressure: 1014.4 mb]
Winds:from the W (280 degrees) at 3 MPH (3 knots; 1.5 m/s)
Visibility:10 or more sm (16+ km)
Ceiling:at least 12,000 feet AGL
Clouds:sky clear below 12,000 feet AGL
QC Flag:automated observation with no human augmentation
Text:KEKN 261316Z AUTO 00000KT 10SM SCT027 08/05 A2994 RMK AO2 T00830050 TSNO
Temperature: 8.3°C ( 47°F)
Dewpoint: 5.0°C ( 41°F) [RH = 80%]
Pressure (altimeter):29.94 inches Hg (1014.0 mb)
Winds:calm
Visibility:10 or more sm (16+ km)
Ceiling:at least 12,000 feet AGL
Clouds: scattered clouds at 2700 feet AGL
QC Flag:automated observation with no human augmentation
Text:KEKN 261251Z AUTO 00000KT 6SM BR FEW004 OVC027 06/05 A2995 RMK AO2 SLP151 T00560050 TSNO
Temperature: 5.6°C ( 42°F)
Dewpoint: 5.0°C ( 41°F) [RH = 96%]
Pressure (altimeter):29.95 inches Hg (1014.3 mb) [Sea level pressure: 1015.1 mb]
Winds:calm
Visibility: 6 sm ( 10 km)
Ceiling:2700 feet AGL
Clouds: few clouds at 400 feet AGL, overcast cloud deck at 2700 feet AGL
Weather:BR (mist)
QC Flag:automated observation with no human augmentation
Text:KEKN 261225Z AUTO 00000KT 7SM FEW005 BKN026 05/04 A2995 RMK AO2 T00500044 TSNO
Temperature: 5.0°C ( 41°F)
Dewpoint: 4.4°C ( 40°F) [RH = 96%]
Pressure (altimeter):29.95 inches Hg (1014.3 mb)
Winds:calm
Visibility: 7 sm ( 11 km)
Ceiling:2600 feet AGL
Clouds: few clouds at 500 feet AGL, broken clouds at 2600 feet AGL
QC Flag:automated observation with no human augmentation
Text:KEKN 261212Z AUTO 00000KT 5SM BR FEW005 SCT027 04/04 A2994 RMK AO2 T00440039 TSNO
Temperature: 4.4°C ( 40°F)
Dewpoint: 3.9°C ( 39°F) [RH = 97%]
Pressure (altimeter):29.94 inches Hg (1014.0 mb)
Winds:calm
Visibility: 5 sm ( 8 km)
Ceiling:at least 12,000 feet AGL
Clouds: few clouds at 500 feet AGL, scattered clouds at 2700 feet AGL
Weather:BR (mist)
QC Flag:automated observation with no human augmentation
Text:KEKN 261159Z AUTO 00000KT 3SM BR SCT005 BKN027 04/03 A2994 RMK AO2 T00440033 TSNO
Temperature: 4.4°C ( 40°F)
Dewpoint: 3.3°C ( 38°F) [RH = 93%]
Pressure (altimeter):29.94 inches Hg (1014.0 mb)
Winds:calm
Visibility: 3 sm ( 5 km)
Ceiling:2700 feet AGL
Clouds: scattered clouds at 500 feet AGL, broken clouds at 2700 feet AGL
Weather:BR (mist)
QC Flag:automated observation with no human augmentation
Text:KEKN 261151Z AUTO 00000KT 1 1/2SM BR BKN005 BKN027 03/03 A2993 RMK AO2 SLP147 70010 T00330028 10039 20017 51014 TSNO
Temperature: 3.3°C ( 38°F)
Dewpoint: 2.8°C ( 37°F) [RH = 97%]
Pressure (altimeter):29.93 inches Hg (1013.6 mb) [Sea level pressure: 1014.7 mb]
Winds:calm
Visibility: 1.50 sm ( 2.41 km)
Ceiling:500 feet AGL
Clouds: broken clouds at 500 feet AGL, broken clouds at 2700 feet AGL
Weather:BR (mist)
QC Flag:automated observation with no human augmentation
Text:KEKN 261146Z AUTO 00000KT 1SM BR BKN005 BKN027 03/03 A2993 RMK AO2 TSNO
Temperature: 3.0°C ( 37°F)
Dewpoint: 3.0°C ( 37°F) [RH = 100%]
Pressure (altimeter):29.93 inches Hg (1013.6 mb)
Winds:calm
Visibility: 1.00 sm ( 1.61 km)
Ceiling:500 feet AGL
Clouds: broken clouds at 500 feet AGL, broken clouds at 2700 feet AGL
Weather:BR (mist)
QC Flag:automated observation with no human augmentation
Text:KEKN 261132Z AUTO 00000KT 3/4SM BR VV005 03/02 A2993 RMK AO2 T00280022 TSNO
Temperature: 2.8°C ( 37°F)
Dewpoint: 2.2°C ( 36°F) [RH = 96%]
Pressure (altimeter):29.93 inches Hg (1013.6 mb)
Winds:calm
Visibility: 0.75 sm ( 1.21 km)
Ceiling:indefinite ceiling with vertical visibility of 500 feet AGL
Clouds:obscured sky
Weather:BR (mist)
QC Flag:automated observation with no human augmentation
Text:KEKN 261100Z AUTO 00000KT 3/4SM BR VV004 03/02 A2992 RMK AO2 T00280022 TSNO
Temperature: 2.8°C ( 37°F)
Dewpoint: 2.2°C ( 36°F) [RH = 96%]
Pressure (altimeter):29.92 inches Hg (1013.3 mb)
Winds:calm
Visibility: 0.75 sm ( 1.21 km)
Ceiling:indefinite ceiling with vertical visibility of 400 feet AGL
Clouds:obscured sky
Weather:BR (mist)
QC Flag:automated observation with no human augmentation
Text:KEKN 261051Z AUTO 00000KT 1/4SM FG VV002 03/02 A2991 RMK AO2 SLP141 T00280017 TSNO
Temperature: 2.8°C ( 37°F)
Dewpoint: 1.7°C ( 35°F) [RH = 92%]
Pressure (altimeter):29.91 inches Hg (1013.0 mb) [Sea level pressure: 1014.1 mb]
Winds:calm
Visibility: 0.25 sm ( 0.40 km)
Ceiling:indefinite ceiling with vertical visibility of 200 feet AGL
Clouds:obscured sky
Weather:FG (fog)
QC Flag:automated observation with no human augmentation
Text:KEKN 261017Z AUTO 00000KT 1/2SM FG VV002 02/02 A2990 RMK AO2 T00220017 TSNO
Temperature: 2.2°C ( 36°F)
Dewpoint: 1.7°C ( 35°F) [RH = 96%]
Pressure (altimeter):29.90 inches Hg (1012.6 mb)
Winds:calm
Visibility: 0.50 sm ( 0.80 km)
Ceiling:indefinite ceiling with vertical visibility of 200 feet AGL
Clouds:obscured sky
Weather:FG (fog)
QC Flag:automated observation with no human augmentation
Text:KEKN 260951Z AUTO 00000KT 1/4SM FG VV002 02/02 A2989 RMK AO2 SLP132 T00220017 TSNO
Temperature: 2.2°C ( 36°F)
Dewpoint: 1.7°C ( 35°F) [RH = 96%]
Pressure (altimeter):29.89 inches Hg (1012.3 mb) [Sea level pressure: 1013.2 mb]
Winds:calm
Visibility: 0.25 sm ( 0.40 km)
Ceiling:indefinite ceiling with vertical visibility of 200 feet AGL
Clouds:obscured sky
Weather:FG (fog)
QC Flag:automated observation with no human augmentation
Text:KEKN 260917Z AUTO 00000KT 1/4SM FG VV002 03/02 A2988 RMK AO2 T00280017 TSNO
Temperature: 2.8°C ( 37°F)
Dewpoint: 1.7°C ( 35°F) [RH = 92%]
Pressure (altimeter):29.88 inches Hg (1011.9 mb)
Winds:calm
Visibility: 0.25 sm ( 0.40 km)
Ceiling:indefinite ceiling with vertical visibility of 200 feet AGL
Clouds:obscured sky
Weather:FG (fog)
QC Flag:automated observation with no human augmentation
Text:KEKN 260906Z AUTO 00000KT 3/4SM BR VV002 03/02 A2989 RMK AO2 T00280017 TSNO
Temperature: 2.8°C ( 37°F)
Dewpoint: 1.7°C ( 35°F) [RH = 92%]
Pressure (altimeter):29.89 inches Hg (1012.3 mb)
Winds:calm
Visibility: 0.75 sm ( 1.21 km)
Ceiling:indefinite ceiling with vertical visibility of 200 feet AGL
Clouds:obscured sky
Weather:BR (mist)
QC Flag:automated observation with no human augmentation
Text:KEKN 260901Z AUTO 00000KT 1 1/4SM BR FEW002 03/02 A2989 RMK AO2 T00280017 TSNO
Temperature: 2.8°C ( 37°F)
Dewpoint: 1.7°C ( 35°F) [RH = 92%]
Pressure (altimeter):29.89 inches Hg (1012.3 mb)
Winds:calm
Visibility: 1.25 sm ( 2.01 km)
Ceiling:at least 12,000 feet AGL
Clouds: few clouds at 200 feet AGL
Weather:BR (mist)
QC Flag:automated observation with no human augmentation
Text:KEKN 260858Z AUTO 00000KT 3/4SM BR VV002 03/02 A2989 RMK AO2 T00280017 TSNO
Temperature: 2.8°C ( 37°F)
Dewpoint: 1.7°C ( 35°F) [RH = 92%]
Pressure (altimeter):29.89 inches Hg (1012.3 mb)
Winds:calm
Visibility: 0.75 sm ( 1.21 km)
Ceiling:indefinite ceiling with vertical visibility of 200 feet AGL
Clouds:obscured sky
Weather:BR (mist)
QC Flag:automated observation with no human augmentation
Text:KEKN 260851Z AUTO 00000KT 1/2SM FG CLR 03/02 A2989 RMK AO2 SLP130 T00280022 58003 TSNO
Temperature: 2.8°C ( 37°F)
Dewpoint: 2.2°C ( 36°F) [RH = 96%]
Pressure (altimeter):29.89 inches Hg (1012.3 mb) [Sea level pressure: 1013.0 mb]
Winds:calm
Visibility: 0.50 sm ( 0.80 km)
Ceiling:at least 12,000 feet AGL
Clouds:sky clear below 12,000 feet AGL
Weather:FG (fog)
QC Flag:automated observation with no human augmentation
Text:KEKN 260841Z AUTO 00000KT 1/2SM FG VV001 03/02 A2989 RMK AO2 T00280022 TSNO
Temperature: 2.8°C ( 37°F)
Dewpoint: 2.2°C ( 36°F) [RH = 96%]
Pressure (altimeter):29.89 inches Hg (1012.3 mb)
Winds:calm
Visibility: 0.50 sm ( 0.80 km)
Ceiling:indefinite ceiling with vertical visibility of 100 feet AGL
Clouds:obscured sky
Weather:FG (fog)
QC Flag:automated observation with no human augmentation
Text:KEKN 260833Z AUTO 00000KT 1 1/4SM BR CLR 03/03 A2989 RMK AO2 VIS 3/4V3 T00330028 TSNO
Temperature: 3.3°C ( 38°F)
Dewpoint: 2.8°C ( 37°F) [RH = 97%]
Pressure (altimeter):29.89 inches Hg (1012.3 mb)
Winds:calm
Visibility: 1.25 sm ( 2.01 km)
Ceiling:at least 12,000 feet AGL
Clouds:sky clear below 12,000 feet AGL
Weather:BR (mist)
QC Flag:automated observation with no human augmentation
Text:KEKN 260826Z AUTO 00000KT 2SM BR CLR 03/02 A2989 RMK AO2 T00330022 TSNO
Temperature: 3.3°C ( 38°F)
Dewpoint: 2.2°C ( 36°F) [RH = 92%]
Pressure (altimeter):29.89 inches Hg (1012.3 mb)
Winds:calm
Visibility: 2.00 sm ( 3.22 km)
Ceiling:at least 12,000 feet AGL
Clouds:sky clear below 12,000 feet AGL
Weather:BR (mist)
QC Flag:automated observation with no human augmentation
Text:KEKN 260759Z AUTO 00000KT 4SM BR CLR 04/03 A2989 RMK AO2 T00390028 TSNO
Temperature: 3.9°C ( 39°F)
Dewpoint: 2.8°C ( 37°F) [RH = 93%]
Pressure (altimeter):29.89 inches Hg (1012.3 mb)
Winds:calm
Visibility: 4 sm ( 6 km)
Ceiling:at least 12,000 feet AGL
Clouds:sky clear below 12,000 feet AGL
Weather:BR (mist)
QC Flag:automated observation with no human augmentation
Text:KEKN 260751Z AUTO 00000KT 2SM BR CLR 03/03 A2989 RMK AO2 SLP132 T00330028 TSNO
Temperature: 3.3°C ( 38°F)
Dewpoint: 2.8°C ( 37°F) [RH = 97%]
Pressure (altimeter):29.89 inches Hg (1012.3 mb) [Sea level pressure: 1013.2 mb]
Winds:calm
Visibility: 2.00 sm ( 3.22 km)
Ceiling:at least 12,000 feet AGL
Clouds:sky clear below 12,000 feet AGL
Weather:BR (mist)
QC Flag:automated observation with no human augmentation
Text:KEKN 260740Z AUTO 16003KT 1 3/4SM BR CLR 02/02 A2990 RMK AO2 VIS 3/4V3 T00220022 TSNO
Temperature: 2.2°C ( 36°F)
Dewpoint: 2.2°C ( 36°F) [RH = 100%]
Pressure (altimeter):29.90 inches Hg (1012.6 mb)
Winds:from the SSE (160 degrees) at 3 MPH (3 knots; 1.5 m/s)
Visibility: 1.75 sm ( 2.82 km)
Ceiling:at least 12,000 feet AGL
Clouds:sky clear below 12,000 feet AGL
Weather:BR (mist)
QC Flag:automated observation with no human augmentation
Text:KEKN 260717Z AUTO 00000KT 5SM BR CLR 04/03 A2989 RMK AO2 T00390028 TSNO
Temperature: 3.9°C ( 39°F)
Dewpoint: 2.8°C ( 37°F) [RH = 93%]
Pressure (altimeter):29.89 inches Hg (1012.3 mb)
Winds:calm
Visibility: 5 sm ( 8 km)
Ceiling:at least 12,000 feet AGL
Clouds:sky clear below 12,000 feet AGL
Weather:BR (mist)
QC Flag:automated observation with no human augmentation
Text:KEKN 260706Z AUTO 02003KT 2SM BR CLR 03/02 A2989 RMK AO2 T00330022 TSNO
Temperature: 3.3°C ( 38°F)
Dewpoint: 2.2°C ( 36°F) [RH = 92%]
Pressure (altimeter):29.89 inches Hg (1012.3 mb)
Winds:from the NNE (20 degrees) at 3 MPH (3 knots; 1.5 m/s)
Visibility: 2.00 sm ( 3.22 km)
Ceiling:at least 12,000 feet AGL
Clouds:sky clear below 12,000 feet AGL
Weather:BR (mist)
QC Flag:automated observation with no human augmentation
Text:KEKN 260651Z AUTO 00000KT 3SM BR CLR 03/03 A2989 RMK AO2 SLP131 T00330028 TSNO
Temperature: 3.3°C ( 38°F)
Dewpoint: 2.8°C ( 37°F) [RH = 97%]
Pressure (altimeter):29.89 inches Hg (1012.3 mb) [Sea level pressure: 1013.1 mb]
Winds:calm
Visibility: 3 sm ( 5 km)
Ceiling:at least 12,000 feet AGL
Clouds:sky clear below 12,000 feet AGL
Weather:BR (mist)
QC Flag:automated observation with no human augmentation
Text:KEKN 260551Z AUTO 00000KT 7SM CLR 04/03 A2990 RMK AO2 SLP131 60006 T00440033 10117 20044 55001 TSNO
Temperature: 4.4°C ( 40°F)
Dewpoint: 3.3°C ( 38°F) [RH = 93%]
Pressure (altimeter):29.90 inches Hg (1012.6 mb) [Sea level pressure: 1013.1 mb]
Winds:calm
Visibility: 7 sm ( 11 km)
Ceiling:at least 12,000 feet AGL
Clouds:sky clear below 12,000 feet AGL
QC Flag:automated observation with no human augmentation
Text:KEKN 260451Z AUTO VRB05KT 10SM FEW022 08/04 A2989 RMK AO2 SLP127 T00830044 401440078 TSNO
Temperature: 8.3°C ( 47°F)
Dewpoint: 4.4°C ( 40°F) [RH = 76%]
Pressure (altimeter):29.89 inches Hg (1012.3 mb) [Sea level pressure: 1012.7 mb]
Winds:variable direction winds at 6 MPH (5 knots; 2.6 m/s)
Visibility:10 or more sm (16+ km)
Ceiling:at least 12,000 feet AGL
Clouds: few clouds at 2200 feet AGL
QC Flag:automated observation with no human augmentation
Text:KEKN 260410Z AUTO 35006KT 10SM BKN030 OVC036 08/06 A2990 RMK AO2 T00830056 TSNO
Temperature: 8.3°C ( 47°F)
Dewpoint: 5.6°C ( 42°F) [RH = 83%]
Pressure (altimeter):29.90 inches Hg (1012.6 mb)
Winds:from the N (350 degrees) at 7 MPH (6 knots; 3.1 m/s)
Visibility:10 or more sm (16+ km)
Ceiling:3000 feet AGL
Clouds: broken clouds at 3000 feet AGL, overcast cloud deck at 3600 feet AGL
QC Flag:automated observation with no human augmentation
Text:KEKN 260351Z AUTO 32008KT 10SM BKN027 OVC033 09/06 A2990 RMK AO2 SLP128 T00890061 TSNO
Temperature: 8.9°C ( 48°F)
Dewpoint: 6.1°C ( 43°F) [RH = 83%]
Pressure (altimeter):29.90 inches Hg (1012.6 mb) [Sea level pressure: 1012.8 mb]
Winds:from the NW (320 degrees) at 9 MPH (8 knots; 4.1 m/s)
Visibility:10 or more sm (16+ km)
Ceiling:2700 feet AGL
Clouds: broken clouds at 2700 feet AGL, overcast cloud deck at 3300 feet AGL
QC Flag:automated observation with no human augmentation
Text:KEKN 260251Z AUTO 31006G16KT 10SM SCT011 OVC017 09/07 A2990 RMK AO2 RAE47 SLP129 P0002 60006 T00940072 53013 TSNO
Temperature: 9.4°C ( 49°F)
Dewpoint: 7.2°C ( 45°F) [RH = 86%]
Pressure (altimeter):29.90 inches Hg (1012.6 mb) [Sea level pressure: 1012.9 mb]
Winds:from the NW (310 degrees) at 7 MPH (6 knots; 3.1 m/s) gusting to 18 MPH (16 knots; 8.2 m/s)
Visibility:10 or more sm (16+ km)
Ceiling:1700 feet AGL
Clouds: scattered clouds at 1100 feet AGL, overcast cloud deck at 1700 feet AGL
QC Flag:automated observation with no human augmentation
Text:KEKN 260151Z AUTO 31007KT 7SM -RA BKN012 OVC021 11/09 A2988 RMK AO2 SLP122 P0001 T01060089 TSNO
Temperature: 10.6°C ( 51°F)
Dewpoint: 8.9°C ( 48°F) [RH = 89%]
Pressure (altimeter):29.88 inches Hg (1011.9 mb) [Sea level pressure: 1012.2 mb]
Winds:from the NW (310 degrees) at 8 MPH (7 knots; 3.6 m/s)
Visibility: 7 sm ( 11 km)
Ceiling:1200 feet AGL
Clouds: broken clouds at 1200 feet AGL, overcast cloud deck at 2100 feet AGL
Weather:-RA (light rain)
QC Flag:automated observation with no human augmentation
Text:KEKN 260103Z AUTO 31009KT 4SM -RA BR BKN010 OVC016 11/09 A2987 RMK AO2 P0001 T01110094 TSNO
Temperature: 11.1°C ( 52°F)
Dewpoint: 9.4°C ( 49°F) [RH = 89%]
Pressure (altimeter):29.87 inches Hg (1011.6 mb)
Winds:from the NW (310 degrees) at 10 MPH (9 knots; 4.6 m/s)
Visibility: 4 sm ( 6 km)
Ceiling:1000 feet AGL
Clouds: broken clouds at 1000 feet AGL, overcast cloud deck at 1600 feet AGL
Weather:-RA BR (light rain, mist)
QC Flag:automated observation with no human augmentation
Text:KEKN 260051Z AUTO 31006G14KT 4SM -RA BR BKN009 BKN014 OVC019 11/09 A2986 RMK AO2 RAB27 CIG 007V013 SLP116 P0003 T01110094 TSNO
Temperature: 11.1°C ( 52°F)
Dewpoint: 9.4°C ( 49°F) [RH = 89%]
Pressure (altimeter):29.86 inches Hg (1011.3 mb) [Sea level pressure: 1011.6 mb]
Winds:from the NW (310 degrees) at 7 MPH (6 knots; 3.1 m/s) gusting to 16 MPH (14 knots; 7.2 m/s)
Visibility: 4 sm ( 6 km)
Ceiling:900 feet AGL
Clouds: broken clouds at 900 feet AGL, broken clouds at 1400 feet AGL, overcast cloud deck at 1900 feet AGL
Weather:-RA BR (light rain, mist)
QC Flag:automated observation with no human augmentation
Text:KEKN 260040Z AUTO 31008KT 4SM RA BR BKN009 OVC016 11/09 A2986 RMK AO2 RAB27 CIG 007V013 P0000 T01110094 TSNO
Temperature: 11.1°C ( 52°F)
Dewpoint: 9.4°C ( 49°F) [RH = 89%]
Pressure (altimeter):29.86 inches Hg (1011.3 mb)
Winds:from the NW (310 degrees) at 9 MPH (8 knots; 4.1 m/s)
Visibility: 4 sm ( 6 km)
Ceiling:900 feet AGL
Clouds: broken clouds at 900 feet AGL, overcast cloud deck at 1600 feet AGL
Weather:RA BR (moderate rain, mist)
QC Flag:automated observation with no human augmentation
Text:KEKN 260024Z AUTO 29009G17KT 10SM OVC014 12/09 A2985 RMK AO2 T01170094 TSNO
Temperature: 11.7°C ( 53°F)
Dewpoint: 9.4°C ( 49°F) [RH = 86%]
Pressure (altimeter):29.85 inches Hg (1010.9 mb)
Winds:from the WNW (290 degrees) at 10 MPH (9 knots; 4.6 m/s) gusting to 20 MPH (17 knots; 8.7 m/s)
Visibility:10 or more sm (16+ km)
Ceiling:1400 feet AGL
Clouds: overcast cloud deck at 1400 feet AGL
QC Flag:automated observation with no human augmentation
Text:KEKN 252351Z AUTO 33005KT 10SM SCT015 BKN021 OVC030 11/09 A2986 RMK AO2 RAE33 SLP116 P0001 60003 T01110094 10144 20111 51009 TSNO
Temperature: 11.1°C ( 52°F)
Dewpoint: 9.4°C ( 49°F) [RH = 89%]
Pressure (altimeter):29.86 inches Hg (1011.3 mb) [Sea level pressure: 1011.6 mb]
Winds:from the NNW (330 degrees) at 6 MPH (5 knots; 2.6 m/s)
Visibility:10 or more sm (16+ km)
Ceiling:2100 feet AGL
Clouds: scattered clouds at 1500 feet AGL, broken clouds at 2100 feet AGL, overcast cloud deck at 3000 feet AGL
QC Flag:automated observation with no human augmentation
Text:KEKN 252347Z AUTO 30007KT 10SM SCT013 BKN021 OVC030 11/09 A2986 RMK AO2 RAE33 P0001 TSNO
Temperature: 11.0°C ( 52°F)
Dewpoint: 9.0°C ( 48°F) [RH = 87%]
Pressure (altimeter):29.86 inches Hg (1011.3 mb)
Winds:from the WNW (300 degrees) at 8 MPH (7 knots; 3.6 m/s)
Visibility:10 or more sm (16+ km)
Ceiling:2100 feet AGL
Clouds: scattered clouds at 1300 feet AGL, broken clouds at 2100 feet AGL, overcast cloud deck at 3000 feet AGL
QC Flag:automated observation with no human augmentation
Text:KEKN 252333Z AUTO 31007KT 9SM BKN014 OVC021 11/09 A2985 RMK AO2 RAE33 P0001 T01110094 TSNO
Temperature: 11.1°C ( 52°F)
Dewpoint: 9.4°C ( 49°F) [RH = 89%]
Pressure (altimeter):29.85 inches Hg (1010.9 mb)
Winds:from the NW (310 degrees) at 8 MPH (7 knots; 3.6 m/s)
Visibility: 9 sm ( 14 km)
Ceiling:1400 feet AGL
Clouds: broken clouds at 1400 feet AGL, overcast cloud deck at 2100 feet AGL
QC Flag:automated observation with no human augmentation
Text:KEKN 252324Z AUTO 31007KT 3SM -RA BR FEW010 BKN016 OVC027 11/10 A2985 RMK AO2 P0001 T01110100 TSNO
Temperature: 11.1°C ( 52°F)
Dewpoint: 10.0°C ( 50°F) [RH = 93%]
Pressure (altimeter):29.85 inches Hg (1010.9 mb)
Winds:from the NW (310 degrees) at 8 MPH (7 knots; 3.6 m/s)
Visibility: 3 sm ( 5 km)
Ceiling:1600 feet AGL
Clouds: few clouds at 1000 feet AGL, broken clouds at 1600 feet AGL, overcast cloud deck at 2700 feet AGL
Weather:-RA BR (light rain, mist)
QC Flag:automated observation with no human augmentation
Text:KEKN 252316Z AUTO 32006KT 1 3/4SM -RA BR BKN014 BKN020 OVC029 11/10 A2985 RMK AO2 P0000 T01110100 TSNO
Temperature: 11.1°C ( 52°F)
Dewpoint: 10.0°C ( 50°F) [RH = 93%]
Pressure (altimeter):29.85 inches Hg (1010.9 mb)
Winds:from the NW (320 degrees) at 7 MPH (6 knots; 3.1 m/s)
Visibility: 1.75 sm ( 2.82 km)
Ceiling:1400 feet AGL
Clouds: broken clouds at 1400 feet AGL, broken clouds at 2000 feet AGL, overcast cloud deck at 2900 feet AGL
Weather:-RA BR (light rain, mist)
QC Flag:automated observation with no human augmentation
Text:KEKN 252313Z AUTO 32007KT 2 1/2SM -RA BR SCT012 BKN016 OVC029 11/10 A2985 RMK AO2 P0000 T01110100 TSNO
Temperature: 11.1°C ( 52°F)
Dewpoint: 10.0°C ( 50°F) [RH = 93%]
Pressure (altimeter):29.85 inches Hg (1010.9 mb)
Winds:from the NW (320 degrees) at 8 MPH (7 knots; 3.6 m/s)
Visibility: 2.50 sm ( 4.02 km)
Ceiling:1600 feet AGL
Clouds: scattered clouds at 1200 feet AGL, broken clouds at 1600 feet AGL, overcast cloud deck at 2900 feet AGL
Weather:-RA BR (light rain, mist)
QC Flag:automated observation with no human augmentation
Text:KEKN 252305Z AUTO 32007KT 4SM -RA BR SCT012 BKN023 OVC029 11/10 A2985 RMK AO2 P0000 T01110100 TSNO
Temperature: 11.1°C ( 52°F)
Dewpoint: 10.0°C ( 50°F) [RH = 93%]
Pressure (altimeter):29.85 inches Hg (1010.9 mb)
Winds:from the NW (320 degrees) at 8 MPH (7 knots; 3.6 m/s)
Visibility: 4 sm ( 6 km)
Ceiling:2300 feet AGL
Clouds: scattered clouds at 1200 feet AGL, broken clouds at 2300 feet AGL, overcast cloud deck at 2900 feet AGL
Weather:-RA BR (light rain, mist)
QC Flag:automated observation with no human augmentation
Text:KEKN 252251Z AUTO 30007KT 2 1/2SM -RA BR FEW010 BKN015 OVC029 12/10 A2985 RMK AO2 RAB01 SLP112 P0002 T01170100 TSNO
Temperature: 11.7°C ( 53°F)
Dewpoint: 10.0°C ( 50°F) [RH = 89%]
Pressure (altimeter):29.85 inches Hg (1010.9 mb) [Sea level pressure: 1011.2 mb]
Winds:from the WNW (300 degrees) at 8 MPH (7 knots; 3.6 m/s)
Visibility: 2.50 sm ( 4.02 km)
Ceiling:1500 feet AGL
Clouds: few clouds at 1000 feet AGL, broken clouds at 1500 feet AGL, overcast cloud deck at 2900 feet AGL
Weather:-RA BR (light rain, mist)
QC Flag:automated observation with no human augmentation
Text:KEKN 252246Z AUTO 28010KT 2 1/2SM -RA BR BKN015 OVC021 12/10 A2985 RMK AO2 RAB01 P0001 TSNO
Temperature: 12.0°C ( 54°F)
Dewpoint: 10.0°C ( 50°F) [RH = 88%]
Pressure (altimeter):29.85 inches Hg (1010.9 mb)
Winds:from the W (280 degrees) at 12 MPH (10 knots; 5.1 m/s)
Visibility: 2.50 sm ( 4.02 km)
Ceiling:1500 feet AGL
Clouds: broken clouds at 1500 feet AGL, overcast cloud deck at 2100 feet AGL
Weather:-RA BR (light rain, mist)
QC Flag:automated observation with no human augmentation
Text:KEKN 252213Z AUTO 30007KT 3SM -RA BR BKN014 OVC019 12/10 A2983 RMK AO2 RAB01 P0000 T01220100 TSNO
Temperature: 12.2°C ( 54°F)
Dewpoint: 10.0°C ( 50°F) [RH = 86%]
Pressure (altimeter):29.83 inches Hg (1010.2 mb)
Winds:from the WNW (300 degrees) at 8 MPH (7 knots; 3.6 m/s)
Visibility: 3 sm ( 5 km)
Ceiling:1400 feet AGL
Clouds: broken clouds at 1400 feet AGL, overcast cloud deck at 1900 feet AGL
Weather:-RA BR (light rain, mist)
QC Flag:automated observation with no human augmentation
Text:KEKN 252151Z AUTO 28008KT 10SM BKN021 OVC028 12/09 A2983 RMK AO2 SLP104 T01220094 TSNO
Temperature: 12.2°C ( 54°F)
Dewpoint: 9.4°C ( 49°F) [RH = 83%]
Pressure (altimeter):29.83 inches Hg (1010.2 mb) [Sea level pressure: 1010.4 mb]
Winds:from the W (280 degrees) at 9 MPH (8 knots; 4.1 m/s)
Visibility:10 or more sm (16+ km)
Ceiling:2100 feet AGL
Clouds: broken clouds at 2100 feet AGL, overcast cloud deck at 2800 feet AGL
QC Flag:automated observation with no human augmentation
Text:KEKN 252051Z AUTO 27011KT 10SM BKN016 OVC024 13/11 A2981 RMK AO2 RAE03B33E42 SLP097 P0000 60000 T01330106 55004 TSNO
Temperature: 13.3°C ( 56°F)
Dewpoint: 10.6°C ( 51°F) [RH = 84%]
Pressure (altimeter):29.81 inches Hg (1009.6 mb) [Sea level pressure: 1009.7 mb]
Winds:from the W (270 degrees) at 13 MPH (11 knots; 5.7 m/s)
Visibility:10 or more sm (16+ km)
Ceiling:1600 feet AGL
Clouds: broken clouds at 1600 feet AGL, overcast cloud deck at 2400 feet AGL
QC Flag:automated observation with no human augmentation
Text:KEKN 251951Z AUTO 29007KT 6SM -RA BR OVC017 13/11 A2980 RMK AO2 RAE1855B21 SLP096 P0000 T01330111 TSNO
Temperature: 13.3°C ( 56°F)
Dewpoint: 11.1°C ( 52°F) [RH = 87%]
Pressure (altimeter):29.80 inches Hg (1009.2 mb) [Sea level pressure: 1009.6 mb]
Winds:from the WNW (290 degrees) at 8 MPH (7 knots; 3.6 m/s)
Visibility: 6 sm ( 10 km)
Ceiling:1700 feet AGL
Clouds: overcast cloud deck at 1700 feet AGL
Weather:-RA BR (light rain, mist)
QC Flag:automated observation with no human augmentation
Text:KEKN 251851Z AUTO 30004KT 8SM -RA FEW014 OVC022 13/11 A2982 RMK AO2 RAB45 SLP101 P0000 T01330106 TSNO
Temperature: 13.3°C ( 56°F)
Dewpoint: 10.6°C ( 51°F) [RH = 84%]
Pressure (altimeter):29.82 inches Hg (1009.9 mb) [Sea level pressure: 1010.1 mb]
Winds:from the WNW (300 degrees) at 5 MPH (4 knots; 2.1 m/s)
Visibility: 8 sm ( 13 km)
Ceiling:2200 feet AGL
Clouds: few clouds at 1400 feet AGL, overcast cloud deck at 2200 feet AGL
Weather:-RA (light rain)
QC Flag:automated observation with no human augmentation
Text:KEKN 251751Z AUTO 30007KT 10SM OVC023 14/09 A2982 RMK AO2 SLP100 60001 T01440094 10144 20100 58005 TSNO
Temperature: 14.4°C ( 58°F)
Dewpoint: 9.4°C ( 49°F) [RH = 72%]
Pressure (altimeter):29.82 inches Hg (1009.9 mb) [Sea level pressure: 1010.0 mb]
Winds:from the WNW (300 degrees) at 8 MPH (7 knots; 3.6 m/s)
Visibility:10 or more sm (16+ km)
Ceiling:2300 feet AGL
Clouds: overcast cloud deck at 2300 feet AGL
QC Flag:automated observation with no human augmentation
Text:KEKN 251651Z AUTO 30008KT 10SM OVC022 14/09 A2982 RMK AO2 SLP101 T01390089 TSNO
Temperature: 13.9°C ( 57°F)
Dewpoint: 8.9°C ( 48°F) [RH = 72%]
Pressure (altimeter):29.82 inches Hg (1009.9 mb) [Sea level pressure: 1010.1 mb]
Winds:from the WNW (300 degrees) at 9 MPH (8 knots; 4.1 m/s)
Visibility:10 or more sm (16+ km)
Ceiling:2200 feet AGL
Clouds: overcast cloud deck at 2200 feet AGL
QC Flag:automated observation with no human augmentation
Text:KEKN 251551Z AUTO VRB03KT 10SM OVC022 13/10 A2983 RMK AO2 SLP106 T01330100 TSNO
Temperature: 13.3°C ( 56°F)
Dewpoint: 10.0°C ( 50°F) [RH = 80%]
Pressure (altimeter):29.83 inches Hg (1010.2 mb) [Sea level pressure: 1010.6 mb]
Winds:variable direction winds at 3 MPH (3 knots; 1.5 m/s)
Visibility:10 or more sm (16+ km)
Ceiling:2200 feet AGL
Clouds: overcast cloud deck at 2200 feet AGL
QC Flag:automated observation with no human augmentation